createdAt,value
2018-09-05T00:01:33.935Z,27.10
2018-09-05T00:04:02.854Z,31.33
2018-09-05T00:06:31.419Z,25.80
2018-09-05T00:09:00.065Z,25.37
2018-09-05T00:11:29.052Z,26.40
2018-09-05T00:13:57.765Z,28.27
2018-09-05T00:16:26.065Z,22.60
2018-09-05T00:18:55.016Z,25.60
2018-09-05T00:21:23.687Z,22.10
2018-09-05T00:23:52.263Z,25.92
2018-09-05T00:26:20.941Z,24.63
2018-09-05T00:28:49.291Z,24.70
2018-09-05T00:31:17.745Z,25.30
2018-09-05T00:33:46.408Z,24.40
2018-09-05T00:36:15.180Z,23.97
2018-09-05T00:38:43.752Z,30.97
2018-09-05T00:41:12.347Z,24.15
2018-09-05T00:43:40.755Z,22.23
2018-09-05T00:46:09.438Z,24.75
2018-09-05T00:48:38.079Z,25.63
2018-09-05T00:51:06.709Z,25.47
2018-09-05T00:53:35.288Z,32.33
2018-09-05T00:56:03.723Z,26.07
2018-09-05T00:58:32.030Z,25.53
2018-09-05T01:01:00.423Z,23.23
2018-09-05T01:03:29.359Z,24.18
2018-09-05T01:05:58.064Z,26.00
2018-09-05T01:08:26.579Z,21.40
2018-09-05T01:10:55.246Z,22.63
2018-09-05T01:13:23.544Z,32.53
2018-09-05T01:15:51.839Z,23.93
2018-09-05T01:18:20.181Z,24.13
2018-09-05T01:20:48.743Z,24.57
2018-09-05T01:23:17.199Z,26.17
2018-09-05T01:25:45.724Z,22.90
2018-09-05T01:28:14.079Z,24.07
2018-09-05T01:30:42.594Z,24.93
2018-09-05T01:33:11.201Z,24.37
2018-09-05T01:35:39.507Z,31.27
2018-09-05T01:38:07.829Z,28.87
2018-09-05T01:40:36.347Z,26.23
2018-09-05T01:43:04.759Z,28.20
2018-09-05T01:45:33.068Z,23.87
2018-09-05T01:48:01.651Z,27.33
2018-09-05T01:50:35.757Z,24.37
2018-09-05T01:53:04.443Z,20.57
2018-09-05T01:55:33.228Z,22.23
2018-09-05T01:58:01.791Z,24.60
2018-09-05T02:00:33.123Z,25.80
2018-09-05T02:03:01.741Z,20.97
2018-09-05T02:05:30.271Z,21.60
2018-09-05T02:07:59.215Z,23.60
2018-09-05T02:10:28.028Z,21.70
2018-09-05T02:12:56.946Z,22.62
2018-09-05T02:15:25.379Z,19.27
2018-09-05T02:17:53.936Z,21.35
2018-09-05T02:20:22.491Z,19.40
2018-09-05T02:22:51.091Z,20.77
2018-09-05T02:25:19.663Z,21.73
2018-09-05T02:27:48.261Z,18.27
2018-09-05T02:30:16.556Z,18.17
2018-09-05T02:32:44.836Z,18.30
2018-09-05T02:35:13.211Z,17.87
2018-09-05T02:37:41.871Z,19.47
2018-09-05T02:40:10.169Z,19.10
2018-09-05T02:42:39.012Z,22.57
2018-09-05T02:45:07.788Z,19.67
2018-09-05T02:47:36.234Z,17.40
2018-09-05T02:50:04.717Z,17.80
2018-09-05T02:52:34.012Z,22.70
2018-09-05T02:55:02.555Z,17.63
2018-09-05T02:57:31.315Z,19.37
2018-09-05T02:59:59.633Z,20.43
2018-09-05T03:02:28.176Z,19.70
2018-09-05T03:04:56.710Z,17.33
2018-09-05T03:07:25.096Z,19.17
2018-09-05T03:09:53.372Z,16.07
2018-09-05T03:12:22.420Z,20.53
2018-09-05T03:14:52.111Z,19.70
2018-09-05T03:17:21.600Z,20.30
2018-09-05T03:19:50.008Z,21.00
2018-09-05T03:22:18.294Z,23.10
2018-09-05T03:24:46.608Z,20.00
2018-09-05T03:27:14.878Z,22.90
2018-09-05T03:29:43.230Z,19.73
2018-09-05T03:32:11.811Z,25.65
2018-09-05T03:34:40.256Z,21.40
2018-09-05T03:37:09.104Z,24.77
2018-09-05T03:39:37.437Z,18.87
2018-09-05T03:42:06.197Z,21.57
2018-09-05T03:44:35.159Z,21.62
2018-09-05T03:47:03.723Z,20.13
2018-09-05T03:49:32.266Z,18.92
2018-09-05T03:52:00.841Z,23.55
2018-09-05T03:54:29.507Z,20.65
2018-09-05T03:56:57.970Z,20.63
2018-09-05T03:59:26.553Z,22.40
2018-09-05T04:01:55.088Z,21.20
2018-09-05T04:04:23.367Z,19.90
2018-09-05T04:06:51.780Z,19.00
2018-09-05T04:09:20.601Z,15.93
2018-09-05T04:11:48.920Z,18.17
2018-09-05T04:14:17.535Z,20.03
2018-09-05T04:16:47.203Z,19.10
2018-09-05T04:19:15.677Z,22.20
2018-09-05T04:21:45.013Z,21.68
2018-09-05T04:24:13.563Z,27.95
2018-09-05T04:26:42.111Z,24.40
2018-09-05T04:29:10.719Z,20.63
2018-09-05T04:31:39.400Z,34.30
2018-09-05T04:34:07.776Z,23.30
2018-09-05T04:36:36.317Z,21.47
2018-09-05T04:39:07.305Z,21.63
2018-09-05T04:41:35.935Z,27.20
2018-09-05T04:44:04.545Z,19.00
2018-09-05T04:46:32.811Z,25.30
2018-09-05T04:49:01.608Z,21.87
2018-09-05T04:51:30.083Z,23.73
2018-09-05T04:53:58.557Z,21.40
2018-09-05T04:56:27.019Z,22.90
2018-09-05T04:58:55.913Z,22.17
2018-09-05T05:01:27.540Z,21.77
2018-09-05T05:03:56.045Z,21.37
2018-09-05T05:06:24.388Z,16.70
2018-09-05T05:08:53.263Z,23.23
2018-09-05T05:11:21.743Z,18.57
2018-09-05T05:13:50.085Z,21.00
2018-09-05T05:16:18.502Z,18.87
2018-09-05T05:18:46.825Z,19.07
2018-09-05T05:21:15.303Z,18.60
2018-09-05T05:23:44.193Z,19.17
2018-09-05T05:26:12.691Z,20.50
2018-09-05T05:28:41.039Z,26.30
2018-09-05T05:31:09.321Z,21.53
2018-09-05T05:33:37.749Z,17.33
2018-09-05T05:36:06.038Z,16.10
2018-09-05T05:38:34.375Z,17.50
2018-09-05T05:41:02.638Z,19.17
2018-09-05T05:43:31.183Z,18.20
2018-09-05T05:45:59.463Z,21.03
2018-09-05T05:48:27.791Z,16.60
2018-09-05T05:50:56.059Z,17.77
2018-09-05T05:53:24.570Z,18.07
2018-09-05T05:55:53.206Z,21.20
2018-09-05T05:58:21.548Z,17.80
2018-09-05T06:00:50.133Z,16.10
2018-09-05T06:03:18.589Z,16.30
2018-09-05T06:05:46.955Z,15.93
2018-09-05T06:08:15.267Z,17.43
2018-09-05T06:10:43.843Z,17.47
2018-09-05T06:13:12.408Z,16.07
2018-09-05T06:15:40.785Z,16.10
2018-09-05T06:18:09.206Z,15.87
2018-09-05T06:20:38.049Z,12.77
2018-09-05T06:23:06.489Z,13.90
2018-09-05T06:25:34.768Z,18.53
2018-09-05T06:28:03.043Z,15.43
2018-09-05T06:30:31.830Z,10.90
2018-09-05T06:33:01.642Z,15.00
2018-09-05T06:35:30.244Z,10.00
2018-09-05T06:37:58.541Z,11.10
2018-09-05T06:40:27.079Z,10.57
2018-09-05T06:42:55.615Z,10.05
2018-09-05T06:45:24.019Z,9.80
2018-09-05T06:47:52.459Z,20.70
2018-09-05T06:50:21.048Z,10.50
2018-09-05T06:52:49.852Z,12.63
2018-09-05T06:55:18.156Z,7.37
2018-09-05T06:57:46.482Z,8.53
2018-09-05T07:00:17.275Z,12.90
2018-09-05T07:02:46.147Z,8.30
2018-09-05T07:05:14.428Z,9.13
2018-09-05T07:07:42.872Z,8.63
2018-09-05T07:10:11.603Z,7.67
2018-09-05T07:12:39.874Z,10.57
2018-09-05T07:15:08.740Z,11.50
2018-09-05T07:17:37.352Z,8.60
2018-09-05T07:20:06.259Z,8.50
2018-09-05T07:22:34.833Z,9.78
2018-09-05T07:25:03.149Z,8.57
2018-09-05T07:27:31.755Z,7.83
2018-09-05T07:30:00.164Z,8.73
2018-09-05T07:32:28.444Z,8.23
2018-09-05T07:34:56.756Z,9.70
2018-09-05T07:37:25.296Z,10.43
2018-09-05T07:39:53.939Z,6.23
2018-09-05T07:42:23.399Z,6.80
2018-09-05T07:44:51.675Z,7.27
2018-09-05T07:47:20.287Z,5.90
2018-09-05T07:49:48.880Z,10.48
2018-09-05T07:52:17.152Z,6.87
2018-09-05T07:54:46.041Z,6.90
2018-09-05T07:57:14.381Z,12.07
2018-09-05T07:59:42.907Z,8.10
2018-09-05T08:02:11.187Z,5.93
2018-09-05T08:04:39.459Z,9.30
2018-09-05T08:07:07.720Z,7.10
2018-09-05T08:09:36.046Z,9.50
2018-09-05T08:12:05.221Z,6.20
2018-09-05T08:14:33.493Z,5.77
2018-09-05T08:17:02.038Z,7.33
2018-09-05T08:19:30.657Z,9.20
2018-09-05T08:21:59.203Z,5.90
2018-09-05T08:24:27.500Z,7.63
2018-09-05T08:26:55.953Z,7.03
2018-09-05T08:29:24.400Z,7.27
2018-09-05T08:31:52.860Z,9.90
2018-09-05T08:34:21.133Z,7.00
2018-09-05T08:36:49.705Z,8.80
2018-09-05T08:39:18.075Z,7.83
2018-09-05T08:41:46.391Z,9.30
2018-09-05T08:44:15.066Z,7.70
2018-09-05T08:46:43.634Z,9.00
2018-09-05T08:49:12.137Z,10.90
2018-09-05T08:51:40.632Z,14.10
2018-09-05T08:54:09.711Z,9.05
2018-09-05T08:56:38.397Z,18.20
2018-09-05T08:59:07.156Z,10.20
2018-09-05T09:01:35.824Z,9.33
2018-09-05T09:04:04.077Z,12.07
2018-09-05T09:06:32.352Z,13.70
2018-09-05T09:09:00.801Z,11.17
2018-09-05T09:11:29.162Z,11.30
2018-09-05T09:13:57.595Z,11.97
2018-09-05T09:16:25.992Z,13.90
2018-09-05T09:18:54.595Z,9.45
2018-09-05T09:21:22.867Z,10.20
2018-09-05T09:23:51.268Z,10.93
2018-09-05T09:26:19.863Z,12.30
2018-09-05T09:28:48.265Z,12.20
2018-09-05T09:31:16.567Z,10.73
2018-09-05T09:33:44.984Z,12.17
2018-09-05T09:36:13.388Z,10.90
2018-09-05T09:38:41.874Z,13.57
2018-09-05T09:41:10.432Z,10.05
2018-09-05T09:43:38.698Z,14.23
2018-09-05T09:46:07.388Z,13.50
2018-09-05T09:48:35.843Z,13.80
2018-09-05T09:51:04.195Z,9.50
2018-09-05T09:53:32.483Z,10.20
2018-09-05T09:56:00.762Z,13.37
2018-09-05T09:58:29.274Z,10.80
2018-09-05T10:01:03.119Z,12.27
2018-09-05T10:03:36.941Z,12.27
2018-09-05T10:06:11.007Z,14.50
2018-09-05T10:08:44.601Z,11.57
2018-09-05T10:11:16.305Z,13.10
2018-09-05T10:13:50.020Z,13.10
2018-09-05T10:18:26.809Z,13.53
2018-09-05T10:20:56.490Z,12.10
2018-09-05T10:23:25.160Z,15.07
2018-09-05T10:25:54.315Z,14.03
2018-09-05T10:28:22.710Z,13.80
2018-09-05T10:30:51.639Z,14.27
2018-09-05T10:33:20.077Z,15.97
2018-09-05T10:35:48.932Z,15.17
2018-09-05T10:38:17.446Z,13.20
2018-09-05T10:40:46.252Z,13.75
2018-09-05T10:43:14.857Z,15.97
2018-09-05T10:45:43.263Z,16.50
2018-09-05T10:48:13.099Z,16.00
2018-09-05T10:50:41.372Z,15.67
2018-09-05T10:53:09.930Z,14.65
2018-09-05T10:55:38.512Z,15.07
2018-09-05T10:58:07.174Z,14.30
2018-09-05T11:00:36.086Z,16.60
2018-09-05T11:03:04.723Z,14.90
2018-09-05T11:05:33.007Z,15.50
2018-09-05T11:08:01.449Z,18.23
2018-09-05T11:10:29.794Z,14.27
2018-09-05T11:12:58.199Z,15.20
2018-09-05T11:15:26.758Z,13.80
2018-09-05T11:17:55.076Z,17.77
2018-09-05T11:20:23.983Z,15.70
2018-09-05T11:22:52.599Z,12.90
2018-09-05T11:25:21.241Z,18.43
2018-09-05T11:27:49.628Z,17.13
2018-09-05T11:30:18.011Z,16.50
2018-09-05T11:32:46.408Z,14.87
2018-09-05T11:35:14.776Z,20.13
2018-09-05T11:37:43.384Z,15.93
2018-09-05T11:40:11.906Z,20.50
2018-09-05T11:42:40.180Z,15.17
2018-09-05T11:45:08.843Z,15.77
2018-09-05T11:47:37.433Z,17.00
2018-09-05T11:50:06.311Z,15.68
2018-09-05T11:52:34.653Z,14.63
2018-09-05T11:55:03.632Z,15.03
2018-09-05T11:57:32.934Z,14.68
2018-09-05T12:00:01.854Z,13.93
2018-09-05T12:02:30.337Z,15.50
2018-09-05T12:04:59.354Z,15.77
2018-09-05T12:07:28.111Z,15.73
2018-09-05T12:09:56.932Z,14.40
2018-09-05T12:12:53.538Z,16.80
2018-09-05T12:15:21.828Z,15.10
2018-09-05T12:17:50.187Z,16.10
2018-09-05T12:20:18.613Z,15.27
2018-09-05T12:22:47.417Z,16.37
2018-09-05T12:25:16.256Z,17.10
2018-09-05T12:27:45.016Z,19.57
2018-09-05T12:30:13.492Z,14.80
2018-09-05T12:32:41.912Z,15.97
2018-09-05T12:35:10.179Z,16.17
2018-09-05T12:37:38.591Z,17.60
2018-09-05T12:40:06.931Z,14.20
2018-09-05T12:42:35.208Z,14.73
2018-09-05T12:45:04.041Z,17.17
2018-09-05T12:47:32.484Z,15.67
2018-09-05T12:50:00.932Z,17.67
2018-09-05T12:52:29.243Z,17.70
2018-09-05T12:54:57.665Z,15.93
2018-09-05T12:57:25.963Z,14.27
2018-09-05T12:59:54.436Z,15.23
2018-09-05T13:02:22.776Z,24.73
2018-09-05T13:04:51.087Z,15.03
2018-09-05T13:07:19.837Z,15.77
2018-09-05T13:09:48.389Z,16.07
2018-09-05T13:12:16.958Z,16.37
2018-09-05T13:14:45.271Z,16.33
2018-09-05T13:17:13.639Z,18.23
2018-09-05T13:19:42.261Z,19.00
2018-09-05T13:22:10.568Z,17.87
2018-09-05T13:24:39.096Z,19.63
2018-09-05T13:27:07.751Z,18.23
2018-09-05T13:29:36.336Z,27.50
2018-09-05T13:32:04.610Z,16.57
2018-09-05T13:34:32.900Z,17.97
2018-09-05T13:37:01.201Z,15.30
2018-09-05T13:39:29.486Z,15.63
2018-09-05T13:41:57.768Z,16.20
2018-09-05T13:44:26.346Z,15.48
2018-09-05T13:46:54.762Z,16.00
2018-09-05T13:49:23.068Z,17.67
2018-09-05T13:51:57.500Z,21.17
2018-09-05T13:54:25.780Z,19.30
2018-09-05T13:56:54.324Z,20.43
2018-09-05T13:59:22.901Z,18.33
2018-09-05T14:01:51.400Z,19.60
2018-09-05T14:04:19.695Z,18.00
2018-09-05T14:06:48.036Z,18.53
2018-09-05T14:09:16.542Z,17.43
2018-09-05T14:11:45.338Z,18.20
2018-09-05T14:14:13.641Z,16.97
2018-09-05T14:16:43.047Z,19.37
2018-09-05T14:19:11.307Z,18.33
2018-09-05T14:21:39.919Z,18.27
2018-09-05T14:24:08.342Z,19.70
2018-09-05T14:26:37.231Z,19.75
2018-09-05T14:29:05.736Z,18.60
2018-09-05T14:31:34.180Z,18.00
2018-09-05T14:34:02.790Z,21.25
2018-09-05T14:36:31.423Z,19.48
2018-09-05T14:39:00.004Z,20.40
2018-09-05T14:41:28.635Z,20.70
2018-09-05T14:43:57.132Z,21.50
2018-09-05T14:46:25.708Z,21.37
2018-09-05T14:48:53.968Z,17.87
2018-09-05T14:51:22.265Z,18.60
2018-09-05T14:53:50.638Z,17.67
2018-09-05T14:56:19.052Z,19.00
2018-09-05T14:58:47.457Z,21.30
2018-09-05T15:01:15.761Z,19.47
2018-09-05T15:03:44.398Z,21.23
2018-09-05T15:06:12.779Z,29.57
2018-09-05T15:08:41.148Z,23.73
2018-09-05T15:11:09.445Z,21.13
2018-09-05T15:13:37.802Z,20.40
2018-09-05T15:16:06.687Z,19.10
2018-09-05T15:18:35.361Z,22.43
2018-09-05T15:21:04.272Z,29.07
2018-09-05T15:23:33.235Z,25.63
2018-09-05T15:26:02.628Z,25.93
2018-09-05T15:28:31.302Z,21.73
2018-09-05T15:30:59.895Z,23.60
2018-09-05T15:33:28.341Z,24.33
2018-09-05T15:35:56.665Z,23.70
2018-09-05T15:38:25.216Z,27.48
2018-09-05T15:40:53.619Z,25.70
2018-09-05T15:43:22.010Z,29.07
2018-09-05T15:45:50.945Z,25.33
2018-09-05T15:48:22.320Z,29.97
2018-09-05T15:50:50.759Z,27.77
2018-09-05T15:53:19.091Z,32.37
2018-09-05T15:55:47.598Z,27.03
2018-09-05T15:58:16.320Z,30.13
2018-09-05T16:00:45.292Z,32.23
2018-09-05T16:03:13.968Z,34.63
2018-09-05T16:05:42.421Z,31.87
2018-09-05T16:08:12.041Z,40.17
2018-09-05T16:10:40.580Z,31.10
2018-09-05T16:13:10.316Z,35.50
2018-09-05T16:15:39.508Z,38.67
2018-09-05T16:18:07.860Z,33.50
2018-09-05T16:20:36.153Z,31.40
2018-09-05T16:23:04.609Z,34.43
2018-09-05T16:25:33.072Z,35.37
2018-09-05T16:28:01.613Z,29.50
2018-09-05T16:30:30.212Z,40.65
2018-09-05T16:32:58.927Z,34.40
2018-09-05T16:35:27.536Z,34.63
2018-09-05T16:37:56.048Z,50.67
2018-09-05T16:40:24.687Z,59.50
2018-09-05T16:42:52.960Z,72.83
2018-09-05T16:45:21.851Z,59.70
2018-09-05T16:47:50.984Z,96.27
2018-09-05T16:50:19.560Z,43.63
2018-09-05T16:52:48.143Z,140.55
2018-09-05T16:55:16.479Z,51.67
2018-09-05T16:57:45.035Z,50.73
2018-09-05T17:00:13.829Z,78.83
2018-09-05T17:02:42.235Z,69.73
2018-09-05T17:05:10.530Z,50.37
2018-09-05T17:07:39.105Z,43.40
2018-09-05T17:10:07.916Z,42.67
2018-09-05T17:12:36.213Z,39.60
2018-09-05T17:15:04.742Z,42.70
2018-09-05T17:17:33.047Z,35.70
2018-09-05T17:20:01.627Z,38.87
2018-09-05T17:22:29.947Z,42.23
2018-09-05T17:24:58.996Z,40.03
2018-09-05T17:27:27.258Z,33.93
2018-09-05T17:29:55.680Z,35.43
2018-09-05T17:32:24.289Z,42.93
2018-09-05T17:34:53.423Z,42.97
2018-09-05T17:37:21.715Z,40.30
2018-09-05T17:39:51.440Z,39.53
2018-09-05T17:42:21.465Z,42.90
2018-09-05T17:44:50.013Z,38.13
2018-09-05T17:47:18.427Z,42.87
2018-09-05T17:49:46.874Z,46.53
2018-09-05T17:52:15.421Z,47.20
2018-09-05T17:54:45.952Z,43.10
2018-09-05T17:57:14.736Z,45.73
2018-09-05T17:59:43.312Z,42.67
2018-09-05T18:02:11.696Z,44.10
2018-09-05T18:04:39.968Z,45.63
2018-09-05T18:07:08.683Z,44.60
2018-09-05T18:09:37.529Z,46.53
2018-09-05T18:12:06.546Z,47.60
2018-09-05T18:14:35.193Z,50.17
2018-09-05T18:17:04.020Z,48.37
2018-09-05T18:19:32.552Z,46.50
2018-09-05T18:22:00.973Z,51.30
2018-09-05T18:24:29.697Z,45.48
2018-09-05T18:26:58.249Z,42.87
2018-09-05T18:29:26.562Z,45.83
2018-09-05T18:31:55.088Z,47.87
2018-09-05T18:34:23.884Z,50.38
2018-09-05T18:36:52.319Z,56.30
2018-09-05T18:39:20.595Z,52.73
2018-09-05T18:41:49.539Z,52.03
2018-09-05T18:44:17.870Z,53.07
2018-09-05T18:46:46.425Z,55.15
2018-09-05T18:49:14.880Z,58.97
2018-09-05T18:51:43.657Z,55.85
2018-09-05T18:54:12.204Z,53.57
2018-09-05T18:56:40.466Z,49.97
2018-09-05T18:59:09.109Z,52.93
2018-09-05T19:01:37.680Z,56.97
2018-09-05T19:04:06.549Z,60.08
2018-09-05T19:06:34.835Z,59.40
2018-09-05T19:09:03.680Z,59.27
2018-09-05T19:11:32.104Z,60.77
2018-09-05T19:14:00.427Z,68.53
2018-09-05T19:16:28.937Z,55.20
2018-09-05T19:18:57.206Z,56.27
2018-09-05T19:21:25.487Z,59.40
2018-09-05T19:23:53.763Z,68.97
2018-09-05T19:26:22.380Z,74.87
2018-09-05T19:28:50.847Z,63.83
2018-09-05T19:31:19.364Z,64.00
2018-09-05T19:33:47.710Z,69.43
2018-09-05T19:36:16.857Z,66.10
2018-09-05T19:38:45.316Z,71.40
2018-09-05T19:41:14.439Z,72.60
2018-09-05T19:43:42.878Z,76.43
2018-09-05T19:46:11.202Z,73.97
2018-09-05T19:48:40.087Z,74.77
2018-09-05T19:51:08.966Z,75.77
2018-09-05T19:53:37.452Z,81.30
2018-09-05T19:56:06.079Z,74.83
2018-09-05T19:58:35.374Z,72.15
2018-09-05T20:01:04.000Z,83.47
2018-09-05T20:03:32.278Z,81.90
2018-09-05T20:06:00.636Z,79.73
2018-09-05T20:08:29.224Z,74.83
2018-09-05T20:10:57.522Z,78.47
2018-09-05T20:13:26.054Z,85.63
2018-09-05T20:15:54.598Z,79.55
2018-09-05T20:18:23.088Z,84.17
2018-09-05T20:20:51.367Z,83.20
2018-09-05T20:23:20.335Z,78.80
2018-09-05T20:25:48.818Z,81.70
2018-09-05T20:28:17.270Z,83.97
2018-09-05T20:30:46.251Z,79.10
2018-09-05T20:33:14.887Z,81.53
2018-09-05T20:35:43.172Z,79.23
2018-09-05T20:38:11.448Z,90.10
2018-09-05T20:40:40.161Z,88.77
2018-09-05T20:43:09.086Z,88.97
2018-09-05T20:45:37.457Z,90.17
2018-09-05T20:48:05.959Z,81.60
2018-09-05T20:50:34.538Z,95.53
2018-09-05T20:53:02.836Z,88.97
2018-09-05T20:55:31.112Z,99.47
2018-09-05T20:57:59.523Z,91.33
2018-09-05T21:00:27.908Z,88.90
2018-09-05T21:02:56.224Z,105.07
2018-09-05T21:05:24.874Z,90.17
2018-09-05T21:07:53.364Z,94.93
2018-09-05T21:10:21.986Z,94.73
2018-09-05T21:12:50.531Z,89.77
2018-09-05T21:15:19.200Z,104.63
2018-09-05T21:17:47.508Z,100.03
2018-09-05T21:20:16.122Z,89.03
2018-09-05T21:22:44.581Z,104.93
2018-09-05T21:25:12.841Z,95.33
2018-09-05T21:27:41.438Z,98.43
2018-09-05T21:30:09.975Z,105.67
2018-09-05T21:32:38.828Z,98.40
2018-09-05T21:35:07.431Z,105.77
2018-09-05T21:37:35.856Z,105.60
2018-09-05T21:40:04.490Z,95.63
2018-09-05T21:42:32.941Z,95.93
2018-09-05T21:45:01.215Z,122.10
2018-09-05T21:47:29.997Z,119.10
2018-09-05T21:49:58.283Z,111.93
2018-09-05T21:52:26.567Z,118.83
2018-09-05T21:54:55.065Z,115.53
2018-09-05T21:57:23.546Z,137.83
2018-09-05T21:59:51.981Z,133.50
2018-09-05T22:02:20.307Z,151.20
2018-09-05T22:04:48.907Z,135.25
2018-09-05T22:07:17.544Z,136.40
2018-09-05T22:09:46.087Z,150.73
2018-09-05T22:12:14.547Z,136.90
2018-09-05T22:14:43.089Z,142.70
2018-09-05T22:17:11.378Z,146.83
2018-09-05T22:19:39.697Z,145.23
2018-09-05T22:22:08.372Z,140.90
2018-09-05T22:24:36.829Z,136.17
2018-09-05T22:27:05.153Z,125.47
2018-09-05T22:29:33.447Z,122.53
2018-09-05T22:32:02.018Z,138.27
2018-09-05T22:34:30.444Z,135.50
2018-09-05T22:36:59.204Z,128.63
2018-09-05T22:39:27.914Z,128.37
2018-09-05T22:41:57.111Z,129.12
2018-09-05T22:44:36.679Z,131.70
2018-09-05T22:47:16.294Z,130.50
2018-09-05T22:54:07.368Z,111.87
2018-09-05T22:58:51.298Z,118.02
2018-09-05T23:01:30.596Z,126.47
2018-09-05T23:04:07.531Z,116.33
2018-09-05T23:06:54.549Z,128.67
2018-09-05T23:09:34.275Z,116.35
2018-09-05T23:12:23.756Z,121.37
2018-09-05T23:15:04.336Z,127.70
2018-09-05T23:17:44.144Z,122.03
2018-09-05T23:21:17.242Z,142.73
2018-09-05T23:23:56.729Z,121.43
2018-09-05T23:26:25.300Z,130.23
2018-09-05T23:28:53.952Z,110.67
2018-09-05T23:31:23.070Z,110.73
2018-09-05T23:33:51.431Z,109.00
2018-09-05T23:36:20.747Z,114.60
2018-09-05T23:38:49.390Z,121.90
2018-09-05T23:41:18.160Z,115.93
2018-09-05T23:43:47.097Z,107.07
2018-09-05T23:46:15.384Z,105.93
2018-09-05T23:48:43.952Z,95.60
2018-09-05T23:51:12.259Z,100.63
2018-09-05T23:53:40.767Z,95.07
2018-09-05T23:56:09.571Z,86.73
2018-09-05T23:58:38.397Z,87.00
